Big Bear Station Historical Data
Daily Summary for February 4, 2017 Units:  English    Metric   Both
« Previous Day
Next Day »
Daily Weekly Monthly Yearly Custom
  High: Low: Average:
Temperature: 54.3 °F 23.4 °F 35.5 °F
Dew Point: 29.5 °F 7.4 °F 20.3 °F
Humidity: 91 % 16 % 60 %
Wind Speed: 5.8 mph 0.0 mph 1.2 mph
Wind Gust: -999.0 mph - -
Wind:- - SW
Pressure: 30.15 in 30.10 in -
Precipitation: 0.00 in    
Historical Graphs
 
 
Tabular Data for February 4, 2017
Time Temperature Dew Point Pressure Wind Wind Speed Wind Gust Humidity Rainfall Rate (Hourly)
00:07 31.8 °F 29.5 °F 30.12 in Calm   -999.0 mph 91 % 0 in
00:22 32.0 °F 28.3 °F 30.12 in SSW 1.1 mph -999.0 mph 86 % 0 in
00:37 31.8 °F 28.1 °F 30.12 in NW 5.8 mph -999.0 mph 86 % 0 in
00:52 31.8 °F 26.9 °F 30.11 in ESE 1.7 mph -999.0 mph 82 % 0 in
01:07 32.0 °F 25.9 °F 30.12 in ESE 1.7 mph -999.0 mph 78 % 0 in
01:23 31.5 °F 25.4 °F 30.11 in North 3.2 mph -999.0 mph 78 % 0 in
01:38 31.8 °F 24.8 °F 30.11 in SSW 1.7 mph -999.0 mph 75 % 0 in
01:53 29.7 °F 24.3 °F 30.11 in South 1.1 mph -999.0 mph 80 % 0 in
02:08 29.5 °F 24.7 °F 30.11 in ESE 2.7 mph -999.0 mph 82 % 0 in
02:24 29.1 °F 22.2 °F 30.10 in Calm   -999.0 mph 75 % 0 in
02:39 29.7 °F 21.1 °F 30.10 in Calm   -999.0 mph 70 % 0 in
02:54 30.2 °F 19.8 °F 30.10 in Calm   -999.0 mph 65 % 0 in
03:09 30.6 °F 20.2 °F 30.10 in NNE 1.1 mph -999.0 mph 65 % 0 in
03:25 28.0 °F 20.5 °F 30.10 in SSE 2.2 mph -999.0 mph 73 % 0 in
03:40 27.1 °F 21.2 °F 30.10 in South 1.7 mph -999.0 mph 78 % 0 in
03:55 27.0 °F 21.4 °F 30.10 in South 2.2 mph -999.0 mph 79 % 0 in
04:10 26.2 °F 20.3 °F 30.10 in SE 1.7 mph -999.0 mph 78 % 0 in
04:25 26.1 °F 20.2 °F 30.10 in Calm   -999.0 mph 78 % 0 in
04:41 25.9 °F 19.4 °F 30.10 in South 2.2 mph -999.0 mph 76 % 0 in
04:56 25.5 °F 19.6 °F 30.10 in ESE 2.2 mph -999.0 mph 78 % 0 in
05:11 25.5 °F 19.9 °F 30.10 in South 2.7 mph -999.0 mph 79 % 0 in
05:27 25.0 °F 20.3 °F 30.11 in South 1.7 mph -999.0 mph 82 % 0 in
05:42 24.4 °F 20.0 °F 30.11 in Calm   -999.0 mph 83 % 0 in
05:57 24.6 °F 19.9 °F 30.11 in Calm   -999.0 mph 82 % 0 in
06:12 23.9 °F 20.0 °F 30.12 in Calm   -999.0 mph 85 % 0 in
06:28 24.4 °F 20.0 °F 30.12 in South 3.2 mph -999.0 mph 83 % 0 in
06:43 23.7 °F 20.1 °F 30.13 in Calm   -999.0 mph 86 % 0 in
06:58 23.4 °F 19.3 °F 30.13 in Calm   -999.0 mph 84 % 0 in
07:13 23.4 °F 19.3 °F 30.13 in Calm   -999.0 mph 84 % 0 in
07:29 23.7 °F 19.9 °F 30.13 in SSE 1.7 mph -999.0 mph 85 % 0 in
07:44 23.4 °F 19.8 °F 30.13 in Calm   -999.0 mph 86 % 0 in
07:59 23.5 °F 19.9 °F 30.13 in Calm   -999.0 mph 86 % 0 in
08:14 24.1 °F 20.2 °F 30.13 in Calm   -999.0 mph 85 % 0 in
08:29 25.5 °F 21.3 °F 30.14 in Calm   -999.0 mph 84 % 0 in
08:45 26.6 °F 22.7 °F 30.14 in NW 1.1 mph -999.0 mph 85 % 0 in
09:00 32.4 °F 24.0 °F 30.15 in SSW 1.7 mph -999.0 mph 71 % 0 in
09:15 32.0 °F 20.8 °F 30.15 in Calm   -999.0 mph 63 % 0 in
09:30 37.0 °F 13.7 °F 30.15 in NNE 2.7 mph -999.0 mph 38 % 0 in
09:45 39.6 °F 13.5 °F 30.15 in SSW 1.1 mph -999.0 mph 34 % 0 in
10:01 42.6 °F 12.5 °F 30.15 in SSW 1.7 mph -999.0 mph 29 % 0 in
10:16 47.5 °F 10.5 °F 30.15 in Calm   -999.0 mph 22 % 0 in
10:31 48.6 °F 11.4 °F 30.15 in SSE 1.1 mph -999.0 mph 22 % 0 in
10:46 47.7 °F 12.6 °F 30.15 in West 1.1 mph -999.0 mph 24 % 0 in
11:01 48.0 °F 18.0 °F 30.15 in West 1.1 mph -999.0 mph 30 % 0 in
11:17 49.6 °F 18.6 °F 30.15 in South 1.1 mph -999.0 mph 29 % 0 in
11:32 51.1 °F 15.5 °F 30.14 in WNW 2.7 mph -999.0 mph 24 % 0 in
11:48 51.8 °F 16.1 °F 30.13 in NW 3.7 mph -999.0 mph 24 % 0 in
12:03 52.7 °F 12.7 °F 30.13 in WNW 1.1 mph -999.0 mph 20 % 0 in
12:18 54.1 °F 11.5 °F 30.12 in NW 3.2 mph -999.0 mph 18 % 0 in
12:34 53.8 °F 20.6 °F 30.12 in NW 3.2 mph -999.0 mph 27 % 0 in
12:49 53.8 °F 17.8 °F 30.12 in NE 3.7 mph -999.0 mph 24 % 0 in
13:04 52.7 °F 20.5 °F 30.11 in NNW 1.7 mph -999.0 mph 28 % 0 in
13:20 54.3 °F 11.6 °F 30.11 in WNW 3.2 mph -999.0 mph 18 % 0 in
13:35 53.1 °F 14.2 °F 30.11 in WNW 2.2 mph -999.0 mph 21 % 0 in
13:50 52.3 °F 7.4 °F 30.11 in NNW 2.7 mph -999.0 mph 16 % 0 in
14:05 52.7 °F 10.3 °F 30.11 in NNW 2.7 mph -999.0 mph 18 % 0 in
14:20 52.2 °F 19.2 °F 30.10 in WNW 1.1 mph -999.0 mph 27 % 0 in
14:36 51.6 °F 20.4 °F 30.10 in NW 2.2 mph -999.0 mph 29 % 0 in
14:51 51.3 °F 23.1 °F 30.10 in West 1.1 mph -999.0 mph 33 % 0 in
15:06 50.5 °F 23.2 °F 30.10 in West 1.1 mph -999.0 mph 34 % 0 in
15:21 51.1 °F 23.0 °F 30.10 in WNW 1.7 mph -999.0 mph 33 % 0 in
15:37 50.5 °F 25.2 °F 30.10 in WNW 1.7 mph -999.0 mph 37 % 0 in
15:52 49.5 °F 23.6 °F 30.10 in WSW 1.7 mph -999.0 mph 36 % 0 in
16:07 48.4 °F 21.3 °F 30.11 in Calm   -999.0 mph 34 % 0 in
16:23 47.3 °F 21.0 °F 30.10 in NNW 1.7 mph -999.0 mph 35 % 0 in
16:39 45.9 °F 19.8 °F 30.10 in Calm   -999.0 mph 35 % 0 in
16:54 43.3 °F 23.4 °F 30.10 in South 2.2 mph -999.0 mph 45 % 0 in
17:09 41.9 °F 24.1 °F 30.10 in Calm   -999.0 mph 49 % 0 in
17:25 39.7 °F 24.8 °F 30.11 in South 2.2 mph -999.0 mph 55 % 0 in
17:40 39.2 °F 23.0 °F 30.11 in Calm   -999.0 mph 52 % 0 in
17:55 37.4 °F 24.0 °F 30.12 in South 1.1 mph -999.0 mph 58 % 0 in
18:11 36.1 °F 23.9 °F 30.12 in Calm   -999.0 mph 61 % 0 in
18:26 35.1 °F 22.6 °F 30.12 in South 2.7 mph -999.0 mph 60 % 0 in
18:41 34.3 °F 22.6 °F 30.13 in South 2.2 mph -999.0 mph 62 % 0 in
18:57 33.3 °F 20.5 °F 30.13 in Calm   -999.0 mph 59 % 0 in
19:12 32.9 °F 21.7 °F 30.13 in SSE 2.2 mph -999.0 mph 63 % 0 in
19:28 32.4 °F 21.2 °F 30.13 in Calm   -999.0 mph 63 % 0 in
19:43 31.5 °F 22.8 °F 30.13 in Calm   -999.0 mph 70 % 0 in
19:58 30.6 °F 21.3 °F 30.13 in Calm   -999.0 mph 68 % 0 in
20:13 30.2 °F 21.9 °F 30.13 in Calm   -999.0 mph 71 % 0 in
20:28 29.8 °F 22.2 °F 30.13 in Calm   -999.0 mph 73 % 0 in
20:44 29.3 °F 21.1 °F 30.13 in Calm   -999.0 mph 71 % 0 in
20:59 28.9 °F 21.0 °F 30.14 in Calm   -999.0 mph 72 % 0 in
21:14 28.6 °F 20.7 °F 30.14 in Calm   -999.0 mph 72 % 0 in
21:29 27.9 °F 20.0 °F 30.14 in Calm   -999.0 mph 72 % 0 in
21:44 27.5 °F 20.9 °F 30.14 in Calm   -999.0 mph 76 % 0 in
22:00 27.9 °F 21.0 °F 30.15 in South 1.7 mph -999.0 mph 75 % 0 in
22:16 27.1 °F 20.5 °F 30.15 in Calm   -999.0 mph 76 % 0 in
22:31 27.1 °F 21.5 °F 30.15 in Calm   -999.0 mph 79 % 0 in
22:46 26.6 °F 21.6 °F 30.15 in Calm   -999.0 mph 81 % 0 in
23:01 26.2 °F 21.2 °F 30.15 in Calm   -999.0 mph 81 % 0 in
23:17 26.4 °F 20.8 °F 30.15 in Calm   -999.0 mph 79 % 0 in
23:32 25.7 °F 20.4 °F 30.14 in Calm   -999.0 mph 80 % 0 in
23:47 25.9 °F 20.6 °F 30.14 in Calm   -999.0 mph 80 % 0 in
Big Bear CA Weather
Compliments of Weather Underground - 1.5 mb